Savage Insight — WDF9252 — position and weather

sailwx.info

Track history (hours):
 
Tides and Currents Weather Stations Pressure Air Temp Water Temp Dewpoint Dewpoint Depression Visibility Wind Speed Wind Dir Waves Ship Positions

Savage Insight

Owner: Savage Inland Marine, Gibson, LA. More information available from US FCC via Universal Licensing System and Coast Guard Vessel Documentation Center.

Last reported at 2017-Aug-15 23:04 UTC. Time now 2017-Aug-22 14:40 UTC.
Position N 32°45' W 091°09'.

Length 32 m; draft 10 m.

Type: Towing. MMSI: 367503240.

Date/timePositionNaut miles runAvg speedWind from/ knotsBaromVisibWave heightAir tempDewpointWater temp
2017-Aug-15 23:04N 32°45' W 091°09'5 2.1
2017-Aug-15 20:47N 32°40' W 091°08'2 4.3
2017-Aug-15 20:16N 32°38' W 091°09'1 5.1
2017-Aug-15 20:00N 32°37' W 091°09'2 4.7
2017-Aug-15 19:30N 32°35' W 091°07'2 4.3
2017-Aug-15 19:00N 32°33' W 091°06'2 4.7
2017-Aug-15 18:29N 32°31' W 091°07'2 4.8
2017-Aug-15 18:00N 32°28' W 091°06'2 4.7
2017-Aug-15 17:30N 32°27' W 091°04'2 4.8
2017-Aug-15 17:00N 32°26' W 091°02'2 4.4
2017-Aug-15 16:30N 32°25' W 090°60'2 3.9
2017-Aug-15 16:00N 32°23' W 091°00'2 3.7
2017-Aug-15 15:30N 32°21' W 090°59'2 4.9
2017-Aug-15 15:00N 32°21' W 090°56'2 4.2
2017-Aug-15 14:30N 32°20' W 090°54'2 4.8
2017-Aug-15 14:00N 32°18' W 090°56'0 0.0
2017-Aug-15 13:30N 32°18' W 090°56'0 0.0
2017-Aug-15 13:00N 32°18' W 090°56'0 0.0
2017-Aug-15 12:30N 32°18' W 090°56'0 0.0
2017-Aug-15 12:01N 32°18' W 090°56'0 0.0
2017-Aug-15 11:30N 32°18' W 090°56'0 0.3
2017-Aug-15 11:00N 32°18' W 090°56'2 5.0
2017-Aug-15 10:30N 32°16' W 090°58'2 4.1
2017-Aug-15 10:00N 32°14' W 090°59'2 4.4
2017-Aug-15 09:30N 32°12' W 090°60'2 4.4
2017-Aug-15 09:00N 32°10' W 091°00'2 4.2
2017-Aug-15 08:30N 32°08' W 091°01'2 4.1
2017-Aug-15 08:00N 32°07' W 091°03'2 4.1
2017-Aug-15 07:25N 32°08' W 091°06'2 4.1
2017-Aug-15 07:00N 32°06' W 091°06'4 3.8
2017-Aug-15 06:04N 32°03' W 091°04'0 4.6
2017-Aug-15 06:00N 32°03' W 091°03'3 5.1
2017-Aug-15 05:30N 32°01' W 091°05'17 4.1
2017-Aug-15 01:21N 31°51' W 091°21'  
2017-Aug-08 21:19N 29°33' W 090°25'3 6.4
2017-Aug-08 20:54N 29°33' W 090°28'3 6.4
2017-Aug-08 20:30N 29°34' W 090°31'3 6.1
2017-Aug-08 20:00N 29°34' W 090°34'3 5.3
2017-Aug-08 19:30N 29°35' W 090°37'3 6.1
2017-Aug-08 19:00N 29°36' W 090°40'2 4.6
2017-Aug-08 18:30N 29°35' W 090°43'2 3.4
2017-Aug-08 18:00N 29°34' W 090°44'2 3.6
2017-Aug-08 17:30N 29°33' W 090°45'3 6.3
2017-Aug-08 17:00N 29°32' W 090°49'  
Track history (hours):
 
Tides and Currents Weather Stations Pressure Air Temp Water Temp Dewpoint Dewpoint Depression Visibility Wind Speed Wind Dir Waves Ship Positions

Savage Insight

Owner: Savage Inland Marine, Gibson, LA. More information available from US FCC via Universal Licensing System and Coast Guard Vessel Documentation Center.

Last reported at 2017-Aug-15 23:04 UTC. Time now 2017-Aug-22 14:40 UTC.
Position N 32°45' W 091°09'.

Length 32 m; draft 10 m.

Type: Towing. MMSI: 367503240.

Date/timePositionNaut miles runAvg speedWind from/ knotsBaromVisibWave heightAir tempDewpointWater temp
2017-Aug-15 23:04N 32°45' W 091°09'5 2.1
2017-Aug-15 20:47N 32°40' W 091°08'2 4.3
2017-Aug-15 20:16N 32°38' W 091°09'1 5.1
2017-Aug-15 20:00N 32°37' W 091°09'2 4.7
2017-Aug-15 19:30N 32°35' W 091°07'2 4.3
2017-Aug-15 19:00N 32°33' W 091°06'2 4.7
2017-Aug-15 18:29N 32°31' W 091°07'2 4.8
2017-Aug-15 18:00N 32°28' W 091°06'2 4.7
2017-Aug-15 17:30N 32°27' W 091°04'2 4.8
2017-Aug-15 17:00N 32°26' W 091°02'2 4.4
2017-Aug-15 16:30N 32°25' W 090°60'2 3.9
2017-Aug-15 16:00N 32°23' W 091°00'2 3.7
2017-Aug-15 15:30N 32°21' W 090°59'2 4.9
2017-Aug-15 15:00N 32°21' W 090°56'2 4.2
2017-Aug-15 14:30N 32°20' W 090°54'2 4.8
2017-Aug-15 14:00N 32°18' W 090°56'0 0.0
2017-Aug-15 13:30N 32°18' W 090°56'0 0.0
2017-Aug-15 13:00N 32°18' W 090°56'0 0.0
2017-Aug-15 12:30N 32°18' W 090°56'0 0.0
2017-Aug-15 12:01N 32°18' W 090°56'0 0.0
2017-Aug-15 11:30N 32°18' W 090°56'0 0.3
2017-Aug-15 11:00N 32°18' W 090°56'2 5.0
2017-Aug-15 10:30N 32°16' W 090°58'2 4.1
2017-Aug-15 10:00N 32°14' W 090°59'2 4.4
2017-Aug-15 09:30N 32°12' W 090°60'2 4.4
2017-Aug-15 09:00N 32°10' W 091°00'2 4.2
2017-Aug-15 08:30N 32°08' W 091°01'2 4.1
2017-Aug-15 08:00N 32°07' W 091°03'2 4.1
2017-Aug-15 07:25N 32°08' W 091°06'2 4.1
2017-Aug-15 07:00N 32°06' W 091°06'4 3.8
2017-Aug-15 06:04N 32°03' W 091°04'0 4.6
2017-Aug-15 06:00N 32°03' W 091°03'3 5.1
2017-Aug-15 05:30N 32°01' W 091°05'17 4.1
2017-Aug-15 01:21N 31°51' W 091°21'  
2017-Aug-08 21:19N 29°33' W 090°25'3 6.4
2017-Aug-08 20:54N 29°33' W 090°28'3 6.4
2017-Aug-08 20:30N 29°34' W 090°31'3 6.1
2017-Aug-08 20:00N 29°34' W 090°34'3 5.3
2017-Aug-08 19:30N 29°35' W 090°37'3 6.1
2017-Aug-08 19:00N 29°36' W 090°40'2 4.6
2017-Aug-08 18:30N 29°35' W 090°43'2 3.4
2017-Aug-08 18:00N 29°34' W 090°44'2 3.6
2017-Aug-08 17:30N 29°33' W 090°45'3 6.3
2017-Aug-08 17:00N 29°32' W 090°49'  

Dump ship's entire track history